Time;durP1;ratioP1;P1;durP2;ratioP2;P2;SDS_P1;SDS_P2;PMS_P1;PMS_P2;Temp;Humidity;BMP_temperature;BMP_pressure;BME280_temperature;BME280_humidity;BME280_pressure;Samples;Min_cycle;Max_cycle;Signal;HPM_P1;HPM_P2
2022/07/13 00:02:25;;;;;;;5.45;2.50;;;;;;;18.43;72.27;99278.03;5089208;28;20050;-56
2022/07/13 00:04:51;;;;;;;4.75;2.33;;;;;;;18.43;72.60;99277.19;5088379;28;20148;-58
2022/07/13 00:07:17;;;;;;;6.28;2.60;;;;;;;18.39;72.52;99273.09;5088068;28;20051;-59
2022/07/13 00:09:43;;;;;;;4.93;2.63;;;;;;;18.29;72.66;99261.56;5089558;28;20036;-61
2022/07/13 00:12:09;;;;;;;3.80;2.60;;;;;;;18.29;73.20;99270.31;5089322;28;20382;-59
2022/07/13 00:14:34;;;;;;;8.90;2.90;;;;;;;18.35;73.18;99274.28;5072233;28;20067;-56
2022/07/13 00:17:00;;;;;;;4.25;2.75;;;;;;;18.34;73.51;99277.88;5092696;28;20465;-56
2022/07/13 00:19:26;;;;;;;5.72;2.65;;;;;;;18.35;73.65;99277.75;5074531;28;20093;-57
2022/07/13 00:21:55;;;;;;;5.65;2.55;;;;;;;18.36;73.48;99275.97;5093371;28;20047;-56
2022/07/13 00:24:21;;;;;;;5.05;2.65;;;;;;;18.38;73.26;99279.31;5092882;28;20074;-58
2022/07/13 00:26:47;;;;;;;8.27;2.95;;;;;;;18.35;72.96;99261.97;5093055;28;20051;-55
2022/07/13 00:29:14;;;;;;;5.90;2.85;;;;;;;18.38;73.11;99279.31;5092846;28;20411;-58
2022/07/13 00:31:41;;;;;;;4.05;2.42;;;;;;;18.27;73.05;99260.81;5092928;28;20040;-56
2022/07/13 00:34:07;;;;;;;5.85;2.70;;;;;;;18.38;72.92;99277.53;5092551;28;20404;-53
2022/07/13 00:36:33;;;;;;;6.43;2.60;;;;;;;18.31;72.91;99264.94;5092602;28;20036;-56
2022/07/13 00:38:59;;;;;;;7.47;3.10;;;;;;;18.36;72.91;99276.81;5092440;28;20036;-56
2022/07/13 00:41:24;;;;;;;4.45;2.65;;;;;;;18.37;73.03;99280.28;5092554;28;20047;-55
2022/07/13 00:43:52;;;;;;;5.85;2.63;;;;;;;18.36;72.93;99283.88;5074562;28;20084;-58
2022/07/13 00:46:18;;;;;;;5.00;3.00;;;;;;;18.33;72.70;99274.38;5074397;28;20155;-55
2022/07/13 00:48:44;;;;;;;5.13;2.40;;;;;;;18.28;72.68;99271.25;5092376;28;20558;-56
2022/07/13 00:51:10;;;;;;;6.57;2.88;;;;;;;18.26;72.53;99275.81;5092782;28;20044;-56
2022/07/13 00:53:38;;;;;;;9.23;3.53;;;;;;;18.27;72.94;99268.72;5074717;28;20040;-55
2022/07/13 00:56:05;;;;;;;5.78;3.00;;;;;;;18.18;73.02;99252.66;5092479;28;20048;-55
2022/07/13 00:58:32;;;;;;;5.53;2.70;;;;;;;18.30;72.78;99274.63;5074754;28;20043;-55
2022/07/13 01:00:58;;;;;;;5.47;3.03;;;;;;;18.28;72.76;99271.25;5069603;28;20213;-56
2022/07/13 01:03:25;;;;;;;8.13;3.13;;;;;;;18.28;72.93;99270.41;5074291;28;20085;-55
2022/07/13 01:05:54;;;;;;;8.10;3.20;;;;;;;18.17;73.01;99258.03;5092216;28;20547;-56
2022/07/13 01:08:20;;;;;;;4.97;3.08;;;;;;;18.21;73.31;99267.41;5057519;28;20044;-56
2022/07/13 01:10:47;;;;;;;6.65;3.22;;;;;;;18.04;73.48;99249.34;5074301;28;20609;-53
2022/07/13 01:13:13;;;;;;;6.72;3.33;;;;;;;18.16;73.85;99266.91;5074137;28;20040;-55
2022/07/13 01:15:39;;;;;;;4.38;3.15;;;;;;;18.12;74.16;99270.66;5073448;28;20089;-56
2022/07/13 01:18:05;;;;;;;8.15;3.20;;;;;;;18.00;74.22;99259.25;5072484;28;20040;-56
2022/07/13 01:20:31;;;;;;;5.10;3.35;;;;;;;18.09;74.52;99273.53;5078802;28;20047;-55
2022/07/13 01:23:01;;;;;;;4.97;3.50;;;;;;;18.08;74.70;99270.06;5091480;28;20553;-57
2022/07/13 01:25:28;;;;;;;7.93;3.58;;;;;;;18.06;75.04;99263.22;5073867;28;20039;-56
2022/07/13 01:27:53;;;;;;;6.38;3.45;;;;;;;18.05;74.94;99267.66;5074275;28;20121;-55
2022/07/13 01:30:19;;;;;;;5.90;3.75;;;;;;;18.06;75.27;99271.09;5092111;28;20040;-55
2022/07/13 01:32:50;;;;;;;7.38;3.38;;;;;;;18.00;75.26;99261.91;5091761;28;20036;-52
2022/07/13 01:35:17;;;;;;;4.97;3.22;;;;;;;18.05;75.29;99267.66;5080877;28;20040;-55
2022/07/13 01:37:44;;;;;;;10.00;3.70;;;;;;;18.05;75.54;99270.28;5090567;28;20162;-56
2022/07/13 01:40:11;;;;;;;6.55;3.55;;;;;;;18.04;75.36;99273.88;5073213;28;20051;-55
2022/07/13 01:42:45;;;;;;;10.88;3.28;;;;;;;18.03;75.50;99259.03;5056803;28;20044;-55
2022/07/13 01:45:12;;;;;;;10.88;3.50;;;;;;;18.07;75.60;99262.28;5091878;28;20065;-54
2022/07/13 01:47:43;;;;;;;9.38;3.65;;;;;;;18.08;75.90;99259.53;5091424;28;20047;-56
2022/07/13 01:50:10;;;;;;;9.63;3.58;;;;;;;18.09;75.52;99270.91;5091114;28;20419;-55
2022/07/13 01:52:36;;;;;;;7.53;3.55;;;;;;;18.08;75.09;99269.22;5057623;28;20044;-55
2022/07/13 01:55:03;;;;;;;8.00;3.50;;;;;;;18.07;74.91;99267.53;5072917;28;20047;-56
2022/07/13 01:57:29;;;;;;;5.70;3.08;;;;;;;18.09;74.85;99268.28;5091592;28;20062;-55
2022/07/13 02:00:31;;;;;;;7.85;3.70;;;;;;;18.09;74.72;99266.50;5073667;28;20511;-63
2022/07/13 02:02:57;;;;;;;14.18;3.42;;;;;;;18.10;74.53;99262.91;5063580;28;20047;-56
2022/07/13 02:05:26;;;;;;;8.93;3.53;;;;;;;18.13;74.32;99270.56;5056642;28;20078;-53
2022/07/13 02:07:53;;;;;;;10.73;4.18;;;;;;;18.05;74.56;99245.78;5091435;28;20519;-56
2022/07/13 02:10:19;;;;;;;7.75;4.15;;;;;;;18.16;74.83;99264.25;5068718;28;20460;-55
2022/07/13 02:12:45;;;;;;;7.63;3.70;;;;;;;18.18;74.96;99262.34;5073171;28;20123;-56
2022/07/13 02:15:11;;;;;;;9.52;4.15;;;;;;;18.21;75.26;99249.78;5073357;28;20043;-56
2022/07/13 02:17:40;;;;;;;10.40;4.30;;;;;;;18.25;75.42;99250.44;5090847;28;20169;-54
2022/07/13 02:20:07;;;;;;;11.63;4.60;;;;;;;18.18;75.60;99236.88;5072542;28;20123;-56
2022/07/13 02:22:40;;;;;;;10.27;4.90;;;;;;;18.32;75.32;99246.38;5072955;28;20086;-56
2022/07/13 02:25:07;;;;;;;9.98;4.30;;;;;;;18.31;75.44;99236.84;5066318;28;20051;-57
2022/07/13 02:27:32;;;;;;;13.50;4.38;;;;;;;18.37;75.56;99246.06;5062960;28;20036;-55
2022/07/13 02:29:58;;;;;;;12.23;4.47;;;;;;;18.42;75.46;99249.22;5040496;28;20541;-54
2022/07/13 02:32:24;;;;;;;10.30;4.32;;;;;;;18.44;75.44;99250.75;5055430;28;20396;-57
2022/07/13 02:34:50;;;;;;;9.95;4.53;;;;;;;18.48;75.53;99254.84;5073131;28;20112;-57
2022/07/13 02:37:15;;;;;;;10.23;3.70;;;;;;;18.52;75.24;99252.84;5090142;28;20570;-55
2022/07/13 02:39:43;;;;;;;7.07;4.05;;;;;;;18.53;75.26;99250.06;5090546;28;20428;-52
2022/07/13 02:42:09;;;;;;;9.95;4.00;;;;;;;18.62;74.98;99253.88;5090262;28;20051;-56
2022/07/13 02:44:35;;;;;;;9.32;3.88;;;;;;;18.66;74.68;99246.56;5090847;28;20036;-57
2022/07/13 02:47:02;;;;;;;6.72;3.90;;;;;;;18.73;74.47;99247.81;5071864;28;20123;-56
2022/07/13 02:49:28;;;;;;;8.15;4.10;;;;;;;18.83;74.07;99248.78;5089879;28;20123;-56
2022/07/13 02:51:54;;;;;;;8.38;4.15;;;;;;;18.90;73.47;99242.09;5072562;28;20515;-54
2022/07/13 02:54:20;;;;;;;8.45;4.15;;;;;;;19.03;72.99;99246.34;5071992;28;20070;-55
2022/07/13 02:56:46;;;;;;;9.25;4.55;;;;;;;19.11;72.55;99244.91;5055191;28;20770;-54
2022/07/13 02:59:12;;;;;;;6.78;4.18;;;;;;;19.10;72.09;99237.97;5071803;28;20055;-55
2022/07/13 03:01:38;;;;;;;9.73;3.90;;;;;;;19.17;71.80;99249.69;5072219;28;20047;-54
2022/07/13 03:04:04;;;;;;;6.93;4.47;;;;;;;19.16;71.83;99248.84;5071567;28;20040;-56
2022/07/13 03:06:31;;;;;;;12.23;3.90;;;;;;;19.14;72.02;99242.03;5055673;28;20032;-55
2022/07/13 03:08:57;;;;;;;9.68;4.25;;;;;;;19.21;71.84;99245.91;5071359;28;20056;-57
2022/07/13 03:11:23;;;;;;;7.22;3.72;;;;;;;19.15;71.90;99236.66;5055105;28;20181;-54
2022/07/13 03:13:49;;;;;;;11.48;5.68;;;;;;;19.22;71.69;99240.50;5055529;28;20074;-54
2022/07/13 03:16:14;;;;;;;11.77;5.85;;;;;;;19.32;71.21;99254.63;5072307;28;20047;-56
2022/07/13 03:18:40;;;;;;;11.15;4.75;;;;;;;19.38;70.99;99258.59;5070509;28;20040;-56
2022/07/13 03:21:08;;;;;;;10.23;5.00;;;;;;;19.41;70.78;99259.22;5090173;28;20071;-57
2022/07/13 03:23:36;;;;;;;15.52;5.03;;;;;;;19.42;70.90;99265.31;5089775;28;20056;-55
2022/07/13 03:26:02;;;;;;;9.25;4.20;;;;;;;19.45;70.46;99259.84;5071592;28;20043;-56
2022/07/13 03:28:28;;;;;;;9.90;4.15;;;;;;;19.53;70.33;99264.50;5071458;28;20067;-55
2022/07/13 03:30:54;;;;;;;11.77;4.53;;;;;;;19.55;70.15;99258.16;5071825;28;20104;-56
2022/07/13 03:33:21;;;;;;;11.32;4.45;;;;;;;19.60;70.12;99263.09;5089089;28;20486;-55
2022/07/13 03:35:48;;;;;;;9.25;4.60;;;;;;;19.65;69.79;99261.78;5090047;28;20044;-56
2022/07/13 03:38:15;;;;;;;10.05;4.40;;;;;;;19.69;69.58;99265.00;5047758;28;20037;-57
2022/07/13 03:40:42;;;;;;;10.30;4.28;;;;;;;19.74;69.33;99268.09;5068063;28;20044;-55
2022/07/13 03:43:08;;;;;;;12.25;5.00;;;;;;;19.76;69.12;99274.13;5069449;28;20040;-55
2022/07/13 03:45:34;;;;;;;10.32;5.18;;;;;;;19.72;68.76;99262.13;5071688;28;20529;-56
2022/07/13 03:48:00;;;;;;;8.43;4.22;;;;;;;19.83;68.80;99268.25;5033916;28;20037;-53
2022/07/13 03:50:26;;;;;;;9.73;5.57;;;;;;;19.86;68.92;99264.50;5067941;28;20052;-54
2022/07/13 03:52:52;;;;;;;11.38;4.53;;;;;;;19.91;68.86;99266.78;5045013;28;20036;-55
2022/07/13 03:55:18;;;;;;;12.48;4.90;;;;;;;19.94;68.53;99259.44;5068142;28;20538;-57
2022/07/13 03:57:45;;;;;;;11.73;5.20;;;;;;;19.96;68.27;99268.09;5059970;28;20055;-56
2022/07/13 04:00:12;;;;;;;10.68;4.60;;;;;;;20.00;68.19;99264.25;5063306;28;20044;-56
2022/07/13 04:02:44;;;;;;;12.30;4.43;;;;;;;20.05;68.10;99266.50;5070513;28;20141;-57
2022/07/13 04:05:13;;;;;;;8.98;4.15;;;;;;;20.07;68.40;99268.09;5071531;28;20044;-55
2022/07/13 04:07:40;;;;;;;9.77;4.20;;;;;;;20.12;68.07;99265.91;5049892;28;20052;-56
2022/07/13 04:10:06;;;;;;;8.05;4.68;;;;;;;20.18;67.66;99273.34;5070119;28;20072;-57
2022/07/13 04:12:32;;;;;;;11.35;3.65;;;;;;;20.25;66.50;99271.06;5070841;28;20055;-55
2022/07/13 04:14:58;;;;;;;10.70;4.40;;;;;;;20.32;66.34;99276.69;5071338;28;20078;-55
2022/07/13 04:17:24;;;;;;;7.78;4.10;;;;;;;20.39;65.89;99268.16;5085623;28;20555;-54
2022/07/13 04:19:50;;;;;;;9.02;4.40;;;;;;;20.31;65.79;99230.97;5071158;28;20043;-55
2022/07/13 04:22:16;;;;;;;5.70;3.45;;;;;;;20.54;65.72;99264.28;5070713;28;20043;-54
2022/07/13 04:24:43;;;;;;;9.52;4.53;;;;;;;20.58;65.41;99270.97;5030971;28;20118;-56
2022/07/13 04:27:09;;;;;;;6.25;3.67;;;;;;;20.55;65.05;99247.47;5048087;28;20045;-54
2022/07/13 04:29:35;;;;;;;8.85;3.95;;;;;;;20.69;64.75;99264.81;5047671;28;20047;-55
2022/07/13 04:32:01;;;;;;;8.90;3.83;;;;;;;20.78;64.42;99266.69;5046948;28;20045;-57
2022/07/13 04:34:27;;;;;;;11.88;4.22;;;;;;;20.84;64.16;99267.97;5014734;28;20049;-54
2022/07/13 04:36:55;;;;;;;15.00;4.50;;;;;;;20.89;64.11;99256.06;5063502;28;20438;-57
2022/07/13 04:39:21;;;;;;;5.60;3.55;;;;;;;20.95;63.99;99252.91;5044266;28;20046;-55
2022/07/13 04:41:47;;;;;;;7.22;4.10;;;;;;;21.01;63.58;99257.69;5051714;28;20048;-53
2022/07/13 04:44:14;;;;;;;6.60;3.47;;;;;;;21.09;63.59;99257.88;5047070;28;20041;-55
2022/07/13 04:46:40;;;;;;;9.57;4.72;;;;;;;21.16;63.22;99260.03;5048371;28;20049;-56
2022/07/13 04:49:06;;;;;;;8.55;3.80;;;;;;;21.12;62.69;99238.28;5046424;28;20067;-55
2022/07/13 04:51:35;;;;;;;6.88;3.83;;;;;;;21.28;62.90;99254.56;5046594;28;20910;-55
2022/07/13 04:54:02;;;;;;;;;;;;;;;21.32;61.84;99253.31;5045093;28;20049;-55
2022/07/13 04:56:28;;;;;;;6.13;3.58;;;;;;;21.26;61.71;99253.84;5057594;28;19936;-55
2022/07/13 04:58:55;;;;;;;6.50;3.50;;;;;;;21.31;61.20;99261.38;5059875;28;20539;-53
2022/07/13 05:01:22;;;;;;;6.95;3.42;;;;;;;21.21;61.05;99242.81;5045473;28;20041;-53
2022/07/13 05:03:48;;;;;;;9.38;3.97;;;;;;;21.34;60.51;99251.38;5045659;28;20044;-53
2022/07/13 05:06:14;;;;;;;10.68;3.63;;;;;;;21.37;60.71;99245.81;5061085;28;20109;-57
2022/07/13 05:08:40;;;;;;;5.15;3.28;;;;;;;21.50;60.87;99253.56;5061344;28;20090;-56
2022/07/13 05:11:08;;;;;;;10.05;3.30;;;;;;;21.63;60.63;99248.03;5061676;28;20206;-57
2022/07/13 05:13:34;;;;;;;10.87;4.10;;;;;;;21.72;60.47;99249.91;5062593;28;20048;-55
2022/07/13 05:16:00;;;;;;;8.52;3.53;;;;;;;21.83;60.51;99257.72;5066441;28;20425;-57
2022/07/13 05:18:27;;;;;;;9.90;3.72;;;;;;;21.85;59.99;99239.91;5066798;28;20056;-56
2022/07/13 05:20:57;;;;;;;7.55;3.53;;;;;;;21.87;59.66;99248.56;5050218;28;20139;-56
2022/07/13 05:23:23;;;;;;;11.23;3.75;;;;;;;21.91;59.50;99247.31;5068436;28;20178;-56
2022/07/13 05:25:49;;;;;;;6.72;3.90;;;;;;;21.98;59.19;99238.69;5091063;28;20047;-59
2022/07/13 05:28:15;;;;;;;10.75;4.15;;;;;;;22.08;59.09;99237.91;5064810;28;20044;-57
2022/07/13 05:30:41;;;;;;;8.80;4.10;;;;;;;22.09;58.39;99240.41;5076519;28;20470;-56
2022/07/13 05:33:08;;;;;;;7.53;3.70;;;;;;;22.06;58.29;99238.03;5071612;28;20040;-58
2022/07/13 05:35:34;;;;;;;6.72;3.35;;;;;;;22.15;58.55;99239.03;5073948;28;20044;-58
2022/07/13 05:38:00;;;;;;;5.57;3.35;;;;;;;22.24;57.81;99230.28;5056444;28;20552;-57
2022/07/13 05:40:26;;;;;;;6.93;3.15;;;;;;;22.34;57.03;99218.72;5073523;28;20118;-56
2022/07/13 05:42:52;;;;;;;4.53;2.78;;;;;;;22.46;57.04;99214.09;5045840;28;20052;-57
2022/07/13 05:45:19;;;;;;;5.90;3.00;;;;;;;22.53;56.89;99222.34;5072993;28;20777;-57
2022/07/13 05:47:45;;;;;;;7.85;3.13;;;;;;;22.55;54.79;99220.41;5055856;28;20561;-57
2022/07/13 05:50:13;;;;;;;8.38;2.88;;;;;;;22.54;54.48;99229.31;5062653;28;20066;-58
2022/07/13 05:52:41;;;;;;;10.32;2.85;;;;;;;22.55;54.17;99220.41;5055544;28;20078;-57
2022/07/13 05:55:11;;;;;;;5.15;2.90;;;;;;;22.60;53.68;99224.31;5068747;28;20044;-58
2022/07/13 05:57:37;;;;;;;7.25;2.78;;;;;;;22.58;53.57;99217.44;5090468;28;20130;-59
2022/07/13 06:00:10;;;;;;;4.38;2.70;;;;;;;22.65;53.43;99219.41;5066511;28;20050;-58
2022/07/13 06:02:40;;;;;;;5.80;2.30;;;;;;;22.62;51.53;99213.53;5085737;28;20040;-58
2022/07/13 06:05:09;;;;;;;3.08;2.00;;;;;;;22.56;52.17;99192.94;5088659;28;20061;-58
2022/07/13 06:07:35;;;;;;;5.03;2.03;;;;;;;22.75;51.95;99206.19;5087725;28;20534;-55
2022/07/13 06:10:02;;;;;;;5.95;2.10;;;;;;;22.84;51.30;99212.44;5069491;28;20299;-60
2022/07/13 06:12:29;;;;;;;3.38;1.70;;;;;;;22.93;50.60;99206.28;5084927;28;20051;-54
2022/07/13 06:14:56;;;;;;;10.38;2.47;;;;;;;22.79;50.63;99197.81;5088270;28;20047;-57
2022/07/13 06:17:22;;;;;;;6.55;2.30;;;;;;;22.79;51.17;99207.56;5067420;28;20500;-57
2022/07/13 06:19:49;;;;;;;3.47;2.10;;;;;;;22.91;51.53;99206.44;5083849;28;20051;-57
2022/07/13 06:22:15;;;;;;;5.93;2.45;;;;;;;22.97;49.82;99191.78;5085482;28;20396;-48
2022/07/13 06:24:42;;;;;;;3.03;1.83;;;;;;;23.15;49.61;99211.25;5026788;28;20049;-56
2022/07/13 06:27:08;;;;;;;5.72;1.95;;;;;;;23.34;49.25;99213.03;5044302;28;20049;-56
2022/07/13 06:29:34;;;;;;;2.22;1.77;;;;;;;23.47;47.46;99224.19;5031356;28;20037;-56
2022/07/13 06:32:00;;;;;;;3.22;1.88;;;;;;;23.56;47.03;99210.03;5047503;28;20064;-55
2022/07/13 06:34:26;;;;;;;4.90;1.80;;;;;;;23.68;46.56;99206.22;5048653;28;20036;-57
2022/07/13 06:36:52;;;;;;;6.50;1.85;;;;;;;23.91;46.13;99209.31;5032441;28;20474;-57
2022/07/13 06:39:17;;;;;;;2.13;1.65;;;;;;;24.05;45.37;99201.66;5050075;28;20071;-57
2022/07/13 06:41:45;;;;;;;4.25;1.75;;;;;;;24.35;45.79;99192.53;5049961;28;20059;-57
2022/07/13 06:44:12;;;;;;;4.53;2.00;;;;;;;24.85;44.47;99195.44;5047758;28;20262;-58
2022/07/13 06:46:38;;;;;;;3.88;2.20;;;;;;;25.21;42.86;99196.22;5050341;28;20052;-58
2022/07/13 06:49:04;;;;;;;4.50;2.08;;;;;;;25.83;41.83;99174.72;5049894;28;20036;-58
2022/07/13 06:51:30;;;;;;;5.13;2.13;;;;;;;27.08;39.92;99202.84;5048871;28;20045;-59
2022/07/13 06:53:56;;;;;;;6.72;2.20;;;;;;;28.02;37.90;99202.88;5048046;28;20044;-58
2022/07/13 06:56:22;;;;;;;10.98;2.17;;;;;;;28.36;36.46;99193.69;5031820;28;20082;-57
2022/07/13 06:58:48;;;;;;;3.35;2.13;;;;;;;27.77;37.86;99191.50;5049734;28;20123;-57
2022/07/13 07:01:14;;;;;;;4.63;2.25;;;;;;;29.03;35.95;99200.00;5048420;28;20063;-58
2022/07/13 07:03:39;;;;;;;3.60;2.20;;;;;;;30.02;33.82;99175.44;5048674;28;20508;-56
2022/07/13 07:06:05;;;;;;;6.68;2.67;;;;;;;30.00;34.20;99190.03;5049696;28;20041;-57
2022/07/13 07:08:31;;;;;;;6.65;2.55;;;;;;;30.27;34.04;99197.34;5047189;28;20767;-58
2022/07/13 07:10:57;;;;;;;7.05;2.20;;;;;;;30.49;32.21;99166.03;5049168;28;20051;-57
2022/07/13 07:13:22;;;;;;;4.97;1.80;;;;;;;30.78;32.06;99195.38;5048940;28;20425;-58
2022/07/13 07:15:48;;;;;;;4.35;2.03;;;;;;;30.34;31.25;99184.84;5049213;28;20044;-49
2022/07/13 07:18:14;;;;;;;4.10;1.60;;;;;;;28.84;33.58;99208.56;5049092;28;20509;-58
2022/07/13 07:20:40;;;;;;;3.78;1.70;;;;;;;27.18;34.83;99197.34;5049628;28;20497;-58
2022/07/13 07:23:06;;;;;;;2.60;1.50;;;;;;;26.47;36.43;99196.19;5061219;28;20047;-60
2022/07/13 07:25:32;;;;;;;4.32;2.10;;;;;;;26.28;37.45;99179.66;5089365;28;20541;-56
2022/07/13 07:27:58;;;;;;;7.65;2.22;;;;;;;26.81;37.07;99189.84;5089515;28;20040;-59
2022/07/13 07:30:24;;;;;;;4.03;1.90;;;;;;;26.13;38.54;99187.44;5089568;28;20040;-58
2022/07/13 07:32:50;;;;;;;4.18;2.13;;;;;;;25.37;40.60;99184.00;5088925;28;20035;-58
2022/07/13 07:35:16;;;;;;;2.65;2.00;;;;;;;25.23;41.11;99199.53;5089432;28;20044;-59
2022/07/13 07:37:41;;;;;;;5.55;2.40;;;;;;;25.04;41.34;99186.47;5089579;28;20071;-58
2022/07/13 07:40:08;;;;;;;3.20;2.20;;;;;;;24.98;41.82;99175.59;5088916;28;20048;-59
2022/07/13 07:42:35;;;;;;;4.32;2.10;;;;;;;25.03;41.62;99190.09;5070898;28;20043;-60
2022/07/13 07:45:01;;;;;;;3.92;2.10;;;;;;;24.99;41.08;99198.56;5088579;28;20044;-57
2022/07/13 07:47:29;;;;;;;2.95;1.90;;;;;;;25.04;41.31;99190.94;5069274;28;20032;-57
2022/07/13 07:49:55;;;;;;;5.60;1.95;;;;;;;25.01;41.04;99188.59;5068556;28;20126;-58
2022/07/13 07:52:21;;;;;;;3.63;1.95;;;;;;;25.64;40.70;99194.47;5089188;28;20044;-58
2022/07/13 07:54:48;;;;;;;4.10;1.55;;;;;;;25.70;39.63;99186.66;5056015;28;20047;-58
2022/07/13 07:57:14;;;;;;;2.50;1.55;;;;;;;25.21;40.42;99184.75;5100891;28;20134;-58
2022/07/13 07:59:41;;;;;;;2.00;1.30;;;;;;;25.03;41.02;99190.09;5093590;28;20039;-57
2022/07/13 08:02:08;;;;;;;2.47;1.40;;;;;;;24.62;41.67;99180.13;5070047;28;20042;-60
2022/07/13 08:04:33;;;;;;;3.50;1.50;;;;;;;24.59;41.34;99191.09;5068250;28;20036;-60
2022/07/13 08:07:00;;;;;;;3.35;1.60;;;;;;;26.07;37.46;99180.09;5070239;28;20044;-57
2022/07/13 08:09:26;;;;;;;4.18;1.30;;;;;;;27.63;33.77;99176.22;5088590;28;20086;-59
2022/07/13 08:11:52;;;;;;;4.20;1.20;;;;;;;29.11;31.31;99174.97;5070536;28;20040;-58
2022/07/13 08:14:18;;;;;;;1.85;1.27;;;;;;;30.09;29.75;99184.41;5072283;28;20526;-58
2022/07/13 08:16:44;;;;;;;2.35;1.60;;;;;;;30.79;28.47;99182.81;5077563;28;20050;-55
2022/07/13 08:19:10;;;;;;;1.40;1.30;;;;;;;32.12;27.37;99172.66;5096949;28;20134;-58
2022/07/13 08:21:37;;;;;;;1.98;1.40;;;;;;;33.59;25.41;99177.63;5087124;28;20063;-55
2022/07/13 08:24:03;;;;;;;2.47;1.90;;;;;;;34.04;24.42;99175.78;5051961;28;20051;-58
2022/07/13 08:26:29;;;;;;;2.40;1.70;;;;;;;34.50;23.95;99171.13;5087782;28;20043;-59
2022/07/13 08:28:57;;;;;;;1.17;1.10;;;;;;;34.67;23.23;99167.69;5094663;28;20528;-58
2022/07/13 08:31:23;;;;;;;7.05;1.65;;;;;;;35.18;23.21;99172.03;5093457;28;20135;-59
2022/07/13 08:39:19;;;;;;;2.47;1.50;;;;;;;30.74;28.20;99167.28;5093832;28;20047;-60
2022/07/13 08:41:45;;;;;;;2.38;1.80;;;;;;;32.60;26.18;99165.28;5105741;28;20035;-59
2022/07/13 08:44:11;;;;;;;2.70;1.40;;;;;;;32.32;26.59;99171.66;5097597;28;20435;-60
2022/07/13 08:46:38;;;;;;;2.45;1.30;;;;;;;30.49;28.11;99161.50;5092444;28;20252;-58
2022/07/13 08:49:04;;;;;;;6.78;1.50;;;;;;;29.87;29.35;99162.03;5073894;28;20855;-58
2022/07/13 08:51:34;;;;;;;2.28;1.40;;;;;;;29.46;29.53;99160.91;5074051;28;20050;-58
2022/07/13 08:54:02;;;;;;;3.17;1.75;;;;;;;29.62;29.06;99157.19;5091738;28;20067;-59
2022/07/13 08:56:27;;;;;;;3.73;1.57;;;;;;;29.28;29.22;99163.94;5091949;28;20039;-59
2022/07/13 08:58:55;;;;;;;2.88;1.65;;;;;;;28.96;29.61;99156.22;5074237;28;20044;-57
2022/07/13 09:01:22;;;;;;;2.00;1.80;;;;;;;31.05;27.33;99156.19;5092166;28;20073;-57
2022/07/13 09:03:50;;;;;;;2.42;1.90;;;;;;;32.60;25.22;99149.97;5074682;28;20044;-58
2022/07/13 09:06:43;;;;;;;1.80;1.67;;;;;;;33.68;24.10;99159.34;5091352;28;20058;-59
2022/07/13 09:09:33;;;;;;;3.88;1.50;;;;;;;32.83;24.52;99140.63;5066433;28;20721;-56
2022/07/13 09:12:20;;;;;;;4.55;1.80;;;;;;;32.59;25.25;99142.06;5091658;28;20036;-55
2022/07/13 09:14:54;;;;;;;3.65;1.80;;;;;;;33.56;23.46;99161.84;5091587;28;20040;-59
2022/07/13 09:17:42;;;;;;;1.55;1.40;;;;;;;33.20;24.49;99159.69;5089945;28;20071;-55
2022/07/13 09:20:15;;;;;;;2.17;1.75;;;;;;;33.68;23.51;99150.41;5073982;28;20459;-57
2022/07/13 09:22:50;;;;;;;4.45;2.03;;;;;;;34.75;22.41;99153.13;5091940;28;20055;-59
2022/07/13 09:25:37;;;;;;;3.15;2.25;;;;;;;36.36;21.01;99154.38;5097000;28;20429;-55
2022/07/13 09:28:04;;;;;;;4.55;1.70;;;;;;;36.34;21.12;99147.50;5097811;28;20071;-57
2022/07/13 09:30:31;;;;;;;2.28;1.80;;;;;;;34.75;22.69;99172.03;5073275;28;20062;-54
2022/07/13 09:32:58;;;;;;;1.60;1.50;;;;;;;32.48;24.76;99143.53;5099807;28;20035;-54
2022/07/13 09:35:46;;;;;;;4.97;2.08;;;;;;;31.87;25.73;99132.03;5101712;28;20047;-60
2022/07/13 09:38:32;;;;;;;4.70;1.60;;;;;;;31.94;25.70;99133.69;5100976;28;20044;-57
2022/07/13 09:41:23;;;;;;;2.55;1.60;;;;;;;31.29;26.66;99136.91;5098074;28;20121;-61
2022/07/13 09:46:56;;;;;;;2.92;1.60;;;;;;;32.74;25.61;99140.03;5089008;28;20130;-58
2022/07/13 09:49:37;;;;;;;2.13;1.92;;;;;;;33.33;24.71;99131.03;5089597;28;20032;-59
2022/07/13 09:52:07;;;;;;;4.47;2.25;;;;;;;35.50;22.23;99124.06;5090075;28;20040;-58
2022/07/13 09:54:35;;;;;;;2.67;2.42;;;;;;;37.13;21.45;99133.50;5090225;28;20036;-63
2022/07/13 09:57:03;;;;;;;;;;;;;;;37.37;22.65;99136.19;5076498;28;20039;-58
2022/07/13 09:59:28;;;;;;;;;;;;;;;37.15;23.46;99128.66;5088357;28;19985;-58
2022/07/13 10:01:54;;;;;;;9.30;4.00;;;;;;;35.61;25.71;99121.41;5092882;28;19915;-60
2022/07/13 10:04:21;;;;;;;6.40;3.85;;;;;;;34.32;27.77;99116.03;5096600;28;20047;-56
2022/07/13 10:06:49;;;;;;;8.10;4.73;;;;;;;34.11;28.48;99110.16;5078820;28;20062;-58
2022/07/13 10:09:17;;;;;;;7.32;4.10;;;;;;;35.44;26.95;99108.75;5091123;28;20039;-58
2022/07/13 10:11:43;;;;;;;6.88;3.15;;;;;;;37.75;24.54;99112.00;5073009;28;20040;-58
2022/07/13 10:14:09;;;;;;;5.55;3.63;;;;;;;38.26;24.21;99111.09;5090844;28;20043;-58
2022/07/13 10:16:35;;;;;;;5.85;3.30;;;;;;;39.54;22.82;99111.91;5071884;28;20147;-58
2022/07/13 10:19:05;;;;;;;5.45;2.75;;;;;;;39.07;23.31;99109.66;5074639;28;20417;-61
2022/07/13 10:21:40;;;;;;;3.30;2.33;;;;;;;37.57;24.81;99096.75;5095872;28;20043;-60
2022/07/13 10:24:16;;;;;;;5.82;2.60;;;;;;;36.01;26.60;99110.09;5080778;28;20048;-60
2022/07/13 10:26:42;;;;;;;4.55;2.60;;;;;;;35.75;25.73;99096.94;5101631;28;20420;-58
2022/07/13 10:29:10;;;;;;;5.07;3.10;;;;;;;35.53;26.67;99104.69;5075955;28;20043;-58
2022/07/13 10:31:36;;;;;;;3.45;2.30;;;;;;;37.56;24.77;99105.13;5090523;28;20047;-59
2022/07/13 10:34:04;;;;;;;3.67;2.30;;;;;;;38.26;21.91;99105.66;5090648;28;20043;-58
2022/07/13 10:36:51;;;;;;;2.53;2.30;;;;;;;40.20;20.50;99119.72;5072387;28;20048;-59
2022/07/13 10:39:21;;;;;;;5.65;3.08;;;;;;;41.71;19.00;99107.38;5090231;28;20301;-61
2022/07/13 10:41:59;;;;;;;5.55;3.00;;;;;;;42.86;18.60;99105.00;5093024;28;20131;-59
2022/07/13 10:44:33;;;;;;;6.47;2.30;;;;;;;42.09;19.74;99097.88;5068099;28;20071;-57
2022/07/13 10:46:59;;;;;;;1.40;1.30;;;;;;;39.46;19.44;99105.03;5056847;28;20143;-59
2022/07/13 10:49:31;;;;;;;5.63;2.35;;;;;;;37.40;21.35;99090.41;5089499;28;20122;-59
2022/07/13 10:52:17;;;;;;;5.18;2.38;;;;;;;37.42;22.04;99085.56;5072250;28;20062;-57
2022/07/13 10:57:32;;;;;;;4.55;3.30;;;;;;;39.36;21.79;99094.03;5089628;28;20051;-60
2022/07/13 11:00:24;;;;;;;5.70;3.60;;;;;;;40.19;21.31;99068.22;5071335;28;20040;-57
2022/07/13 11:03:01;;;;;;;9.23;3.60;;;;;;;41.76;20.25;99083.63;5081610;28;20427;-59
2022/07/13 11:05:30;;;;;;;5.88;3.00;;;;;;;42.37;19.97;99091.09;5088870;28;20036;-60
2022/07/13 11:07:56;;;;;;;5.18;3.10;;;;;;;40.80;21.23;99071.44;5074200;28;20043;-58
2022/07/13 11:10:28;;;;;;;6.43;2.17;;;;;;;39.08;22.43;99077.84;5098860;28;20063;-58
2022/07/13 11:13:05;;;;;;;6.80;2.20;;;;;;;37.45;24.28;99062.56;5077633;28;20127;-57
2022/07/13 11:15:50;;;;;;;3.65;2.13;;;;;;;35.12;26.12;99078.34;5089227;28;20048;-57
2022/07/13 11:18:22;;;;;;;3.53;2.05;;;;;;;34.25;27.75;99071.25;5088346;28;20123;-61
2022/07/13 11:21:10;;;;;;;4.53;2.25;;;;;;;35.19;27.40;99061.00;5090572;28;20423;-53
2022/07/13 11:26:45;;;;;;;5.22;2.10;;;;;;;36.31;25.85;99050.50;5039889;28;20138;-58
2022/07/13 11:29:18;;;;;;;3.65;1.92;;;;;;;35.26;27.07;99059.06;5048014;28;20055;-58
2022/07/13 11:31:44;;;;;;;4.72;2.40;;;;;;;34.71;28.02;99047.38;5045502;28;20481;-57
2022/07/13 11:34:11;;;;;;;21.00;4.25;;;;;;;35.92;26.80;99051.94;5042945;28;20040;-58
2022/07/13 11:36:40;;;;;;;6.53;2.97;;;;;;;37.70;24.91;99050.31;5047553;28;20132;-58
2022/07/13 11:39:23;;;;;;;7.00;3.25;;;;;;;39.50;23.11;99062.63;5049445;28;20076;-60
2022/07/13 11:41:51;;;;;;;4.38;3.15;;;;;;;40.61;22.21;99066.41;5055942;28;20496;-59
2022/07/13 11:44:22;;;;;;;7.40;2.97;;;;;;;41.50;21.64;99064.72;5040981;28;20036;-61
2022/07/13 11:46:48;;;;;;;5.88;2.83;;;;;;;41.95;20.71;99058.53;5054905;28;20036;-61
2022/07/13 11:49:13;;;;;;;6.72;3.10;;;;;;;42.61;20.10;99059.34;5030931;28;20127;-57
2022/07/13 11:51:46;;;;;;;4.05;3.17;;;;;;;43.05;19.72;99063.06;5056415;28;20044;-58
2022/07/13 11:54:14;;;;;;;4.22;2.88;;;;;;;43.16;18.97;99063.88;5053994;28;20036;-58